Deo Volente — PHFJ — position and weather

sailwx.info

Track history (hours):
 
Tides and Currents Weather Stations Pressure Air Temp Water Temp Dewpoint Dewpoint Depression Visibility Wind Speed Wind Dir Waves Ship Positions

Deo Volente

Last reported at 2014-Dec-09 17:23 UTC. Time now 2014-Dec-19 01:34 UTC.
Position N 43°06' E 010°22'.
Warning: this ship's position is 9 days out of date.

Length 105 m; draft 5.2 m.

Type: Cargo ship. MMSI: 246518000.

Date/timePositionNaut miles runAvg speedWind from/ knotsBaromVisibWave heightAir tempDewpointWater temp
2014-Dec-09 17:23N 43°06' E 010°22'1112.9
2014-Dec-09 16:33N 43°16' E 010°18'1313.4
2014-Dec-09 15:33N 43°29' E 010°13'7 6.9
2014-Dec-09 14:33N 43°34' E 010°18'0 0.0
2014-Dec-09 13:33N 43°34' E 010°18'0 0.0
2014-Dec-09 12:33N 43°34' E 010°18'0 0.0
2014-Dec-09 11:33N 43°34' E 010°18'0 0.0
2014-Dec-09 10:33N 43°34' E 010°18'0 0.0
2014-Dec-09 09:33N 43°34' E 010°18'0 0.0
2014-Dec-09 08:33N 43°34' E 010°18'0 0.0
2014-Dec-09 07:33N 43°34' E 010°18'0 0.0
2014-Dec-09 06:33N 43°34' E 010°18'0 0.0
2014-Dec-09 05:33N 43°34' E 010°18'3 3.0
2014-Dec-09 04:33N 43°32' E 010°16'1615.6
2014-Dec-09 03:33N 43°21' E 010°00'1615.7
2014-Dec-09 02:33N 43°16' E 009°40'34215.5
2014-Dec-08 04:31N 40°12' E 003°13'1515.6
2014-Dec-08 03:33N 40°03' E 002°57'1615.7
2014-Dec-08 02:33N 39°54' E 002°40'1615.6
2014-Dec-08 01:33N 39°45' E 002°24'1515.2
2014-Dec-08 00:33N 39°36' E 002°08'1515.4
2014-Dec-07 23:33N 39°26' E 001°52'18315.3
2014-Dec-07 11:33N 37°18' W 000°54'21815.4
2014-Dec-06 21:23N 36°01' W 005°09'1417.4
2014-Dec-06 20:33N 35°58' W 005°26'27613.6
2014-Dec-06 00:20N 38°42' W 010°05'  
2014-Dec-03 17:28N 50°28' W 000°24'1414.9
2014-Dec-03 16:33N 50°31' W 000°03'1616.1
2014-Dec-03 15:34N 50°36' E 000°21'1717.2
2014-Dec-03 14:34N 50°44' E 000°45'1817.7
2014-Dec-03 13:34N 50°54' E 001°08'1716.8
2014-Dec-03 12:34N 51°05' E 001°28'1515.1
2014-Dec-03 11:34N 51°18' E 001°40'1514.5
2014-Dec-03 10:33N 51°33' E 001°44'1615.7
2014-Dec-03 09:33N 51°48' E 001°45'1616.2
2014-Dec-03 08:33N 52°04' E 001°51'1717.4
2014-Dec-03 07:33N 52°20' E 002°02'1817.8
2014-Dec-03 06:33N 52°36' E 002°14'  
Track history (hours):
 
Tides and Currents Weather Stations Pressure Air Temp Water Temp Dewpoint Dewpoint Depression Visibility Wind Speed Wind Dir Waves Ship Positions

Deo Volente

Last reported at 2014-Dec-09 17:23 UTC. Time now 2014-Dec-19 01:34 UTC.
Position N 43°06' E 010°22'.
Warning: this ship's position is 9 days out of date.

Length 105 m; draft 5.2 m.

Type: Cargo ship. MMSI: 246518000.

Date/timePositionNaut miles runAvg speedWind from/ knotsBaromVisibWave heightAir tempDewpointWater temp
2014-Dec-09 17:23N 43°06' E 010°22'1112.9
2014-Dec-09 16:33N 43°16' E 010°18'1313.4
2014-Dec-09 15:33N 43°29' E 010°13'7 6.9
2014-Dec-09 14:33N 43°34' E 010°18'0 0.0
2014-Dec-09 13:33N 43°34' E 010°18'0 0.0
2014-Dec-09 12:33N 43°34' E 010°18'0 0.0
2014-Dec-09 11:33N 43°34' E 010°18'0 0.0
2014-Dec-09 10:33N 43°34' E 010°18'0 0.0
2014-Dec-09 09:33N 43°34' E 010°18'0 0.0
2014-Dec-09 08:33N 43°34' E 010°18'0 0.0
2014-Dec-09 07:33N 43°34' E 010°18'0 0.0
2014-Dec-09 06:33N 43°34' E 010°18'0 0.0
2014-Dec-09 05:33N 43°34' E 010°18'3 3.0
2014-Dec-09 04:33N 43°32' E 010°16'1615.6
2014-Dec-09 03:33N 43°21' E 010°00'1615.7
2014-Dec-09 02:33N 43°16' E 009°40'34215.5
2014-Dec-08 04:31N 40°12' E 003°13'1515.6
2014-Dec-08 03:33N 40°03' E 002°57'1615.7
2014-Dec-08 02:33N 39°54' E 002°40'1615.6
2014-Dec-08 01:33N 39°45' E 002°24'1515.2
2014-Dec-08 00:33N 39°36' E 002°08'1515.4
2014-Dec-07 23:33N 39°26' E 001°52'18315.3
2014-Dec-07 11:33N 37°18' W 000°54'21815.4
2014-Dec-06 21:23N 36°01' W 005°09'1417.4
2014-Dec-06 20:33N 35°58' W 005°26'27613.6
2014-Dec-06 00:20N 38°42' W 010°05'  
2014-Dec-03 17:28N 50°28' W 000°24'1414.9
2014-Dec-03 16:33N 50°31' W 000°03'1616.1
2014-Dec-03 15:34N 50°36' E 000°21'1717.2
2014-Dec-03 14:34N 50°44' E 000°45'1817.7
2014-Dec-03 13:34N 50°54' E 001°08'1716.8
2014-Dec-03 12:34N 51°05' E 001°28'1515.1
2014-Dec-03 11:34N 51°18' E 001°40'1514.5
2014-Dec-03 10:33N 51°33' E 001°44'1615.7
2014-Dec-03 09:33N 51°48' E 001°45'1616.2
2014-Dec-03 08:33N 52°04' E 001°51'1717.4
2014-Dec-03 07:33N 52°20' E 002°02'1817.8
2014-Dec-03 06:33N 52°36' E 002°14'  

Dump ship's entire track history